Time;durP1;ratioP1;P1;durP2;ratioP2;P2;SDS_P1;SDS_P2;PMS_P1;PMS_P2;Temp;Humidity;BMP_temperature;BMP_pressure;BME280_temperature;BME280_humidity;BME280_pressure;Samples;Min_cycle;Max_cycle;Signal;HPM_P1;HPM_P2
2023/06/09 00:01:25;;;;;;;0.00;0.00;;;;;;;14.21;65.16;100144.34;5010295;28;20046;-74
2023/06/09 00:03:52;;;;;;;0.00;0.00;;;;;;;14.31;64.81;100156.00;5005849;28;20464;-75
2023/06/09 00:06:22;;;;;;;0.00;0.00;;;;;;;14.27;64.92;100154.13;5004380;28;20515;-73
2023/06/09 00:08:51;;;;;;;0.00;0.00;;;;;;;14.32;65.27;100151.31;5007657;28;20061;-76
2023/06/09 00:11:21;;;;;;;0.00;0.00;;;;;;;14.23;64.46;100158.59;5009185;28;20480;-74
2023/06/09 00:13:51;;;;;;;0.00;0.00;;;;;;;14.06;64.38;100143.44;4986667;28;20030;-75
2023/06/09 00:16:17;;;;;;;0.00;0.00;;;;;;;14.02;64.54;100156.13;5022781;28;20041;-74
2023/06/09 00:18:43;;;;;;;0.00;0.00;;;;;;;13.96;64.72;100171.06;5024162;28;20469;-76
2023/06/09 00:21:09;;;;;;;0.00;0.00;;;;;;;13.89;64.75;100170.59;5007902;28;20503;-74
2023/06/09 00:23:35;;;;;;;0.00;0.00;;;;;;;13.84;65.03;100167.91;4998552;28;20033;-76
2023/06/09 00:26:00;;;;;;;0.00;0.00;;;;;;;13.85;65.05;100164.06;4992608;28;20038;-77
2023/06/09 00:28:26;;;;;;;0.00;0.00;;;;;;;13.84;65.04;100163.22;5013103;28;20065;-75
2023/06/09 00:30:51;;;;;;;0.00;0.00;;;;;;;13.84;65.20;100157.72;5001898;28;20042;-75
2023/06/09 00:33:18;;;;;;;0.00;0.00;;;;;;;13.86;65.58;100161.00;4994993;28;20034;-75
2023/06/09 00:35:43;;;;;;;0.00;0.00;;;;;;;13.81;65.50;100152.00;5006380;28;20069;-76
2023/06/09 00:38:09;;;;;;;0.00;0.00;;;;;;;13.69;64.73;100139.50;5028411;28;20120;-74
2023/06/09 00:40:34;;;;;;;0.00;0.00;;;;;;;13.64;64.80;100136.84;5006717;28;20045;-76
2023/06/09 00:43:00;;;;;;;0.00;0.00;;;;;;;13.66;64.75;100145.59;5002304;28;20088;-75
2023/06/09 00:45:25;;;;;;;0.00;0.00;;;;;;;13.53;64.48;100132.56;5022505;28;20488;-76
2023/06/09 00:47:51;;;;;;;0.00;0.00;;;;;;;13.58;64.61;100149.81;5015805;28;20034;-73
2023/06/09 00:50:19;;;;;;;0.00;0.00;;;;;;;13.56;65.13;100152.00;5010864;28;20017;-76
2023/06/09 00:52:46;;;;;;;0.00;0.00;;;;;;;13.54;64.45;100156.19;5019212;28;20045;-76
2023/06/09 00:55:12;;;;;;;0.00;0.00;;;;;;;13.37;64.88;100126.44;5011421;28;20112;-74
2023/06/09 00:57:39;;;;;;;0.00;0.00;;;;;;;13.42;64.92;100137.38;5009360;28;20031;-73
2023/06/09 01:00:06;;;;;;;0.00;0.00;;;;;;;13.44;64.97;100148.88;4987920;28;20400;-74
2023/06/09 01:02:38;;;;;;;0.00;0.00;;;;;;;13.51;64.28;100154.03;4992308;28;20053;-75
2023/06/09 01:05:05;;;;;;;0.00;0.00;;;;;;;13.39;64.71;100141.50;5007991;28;20476;-75
2023/06/09 01:07:40;;;;;;;0.00;0.00;;;;;;;13.37;64.53;100149.22;5012721;28;20123;-75
2023/06/09 01:10:06;;;;;;;0.00;0.00;;;;;;;13.35;64.66;100151.44;5021396;28;20025;-76
2023/06/09 01:12:57;;;;;;;0.00;0.00;;;;;;;13.31;64.63;100149.53;5010659;28;20387;-76
2023/06/09 01:15:29;;;;;;;0.00;0.00;;;;;;;13.27;64.50;100147.38;5012362;28;20483;-77
2023/06/09 01:18:03;;;;;;;0.00;0.00;;;;;;;13.26;64.63;100147.69;5011296;28;20029;-76
2023/06/09 01:20:46;;;;;;;0.00;0.00;;;;;;;13.16;64.63;100148.59;5008679;28;20396;-76
2023/06/09 01:23:24;;;;;;;0.00;0.00;;;;;;;13.13;64.26;100159.31;5011729;28;20036;-74
2023/06/09 01:25:52;;;;;;;0.00;0.00;;;;;;;13.06;64.85;100165.16;5003654;28;20457;-76
2023/06/09 01:28:23;;;;;;;0.00;0.00;;;;;;;12.99;64.37;100150.94;5001986;28;20044;-75
2023/06/09 01:30:51;;;;;;;0.00;0.00;;;;;;;12.90;64.75;100150.75;5005146;28;20589;-76
2023/06/09 01:33:22;;;;;;;0.00;0.00;;;;;;;12.83;64.27;100150.28;4997504;28;20056;-75
2023/06/09 01:35:48;;;;;;;0.00;0.00;;;;;;;12.74;64.56;100142.66;5001489;28;20038;-74
2023/06/09 01:38:15;;;;;;;0.00;0.00;;;;;;;12.80;65.07;100150.84;5004413;28;20029;-73
2023/06/09 01:40:42;;;;;;;0.00;0.00;;;;;;;12.77;64.85;100140.44;4996078;28;20041;-74
2023/06/09 01:43:07;;;;;;;0.00;0.00;;;;;;;12.73;64.62;100138.28;4983261;28;20120;-74
2023/06/09 01:45:33;;;;;;;0.00;0.00;;;;;;;12.72;64.83;100135.84;5008673;28;20608;-75
2023/06/09 01:48:03;;;;;;;0.00;0.00;;;;;;;12.71;65.14;100136.94;5004404;28;20030;-75
2023/06/09 01:50:37;;;;;;;0.00;0.00;;;;;;;12.64;64.93;100130.94;5007939;28;20439;-76
2023/06/09 01:53:09;;;;;;;0.00;0.00;;;;;;;12.59;65.10;100131.81;5006967;28;20033;-74
2023/06/09 01:55:44;;;;;;;0.00;0.00;;;;;;;12.54;65.16;100132.69;5005666;28;20068;-75
2023/06/09 01:58:17;;;;;;;0.00;0.00;;;;;;;12.54;65.78;100135.44;5003835;28;20025;-73
2023/06/09 02:00:46;;;;;;;0.00;0.00;;;;;;;12.52;65.78;100132.13;5017363;28;20026;-74
2023/06/09 02:03:17;;;;;;;0.00;0.00;;;;;;;12.46;65.92;100129.72;5004867;28;20468;-73
2023/06/09 02:05:45;;;;;;;0.00;0.00;;;;;;;12.45;65.88;100136.31;5001567;28;20038;-74
2023/06/09 02:08:11;;;;;;;0.00;0.00;;;;;;;12.36;65.83;100133.34;5006438;28;20040;-74
2023/06/09 02:10:37;;;;;;;0.00;0.00;;;;;;;12.34;66.38;100139.13;4985217;28;20360;-74
2023/06/09 02:13:18;;;;;;;0.00;0.00;;;;;;;12.32;66.39;100135.84;4997960;28;20037;-74
2023/06/09 02:15:44;;;;;;;0.00;0.00;;;;;;;12.29;66.29;100119.97;4997191;28;20023;-74
2023/06/09 02:18:11;;;;;;;0.00;0.00;;;;;;;12.27;66.23;100111.22;5022574;28;20030;-73
2023/06/09 02:20:39;;;;;;;0.00;0.00;;;;;;;12.29;66.84;100119.97;4983855;28;20042;-75
2023/06/09 02:23:04;;;;;;;0.00;0.00;;;;;;;12.24;66.70;100111.78;5001403;28;20030;-74
2023/06/09 02:25:32;;;;;;;0.00;0.00;;;;;;;12.26;67.03;100115.03;4999792;28;20042;-75
2023/06/09 02:27:58;;;;;;;0.00;0.00;;;;;;;12.21;66.83;100113.16;5005745;28;20113;-75
2023/06/09 02:30:23;;;;;;;0.00;0.00;;;;;;;12.21;66.69;100117.84;5006534;28;20045;-74
2023/06/09 02:32:49;;;;;;;0.00;0.00;;;;;;;12.17;66.76;100111.28;4981976;28;20800;-75
2023/06/09 02:35:14;;;;;;;0.00;0.00;;;;;;;12.18;67.33;100107.44;4991219;28;20045;-74
2023/06/09 02:37:41;;;;;;;0.00;0.00;;;;;;;12.16;67.09;100104.16;5004865;28;20026;-74
2023/06/09 02:40:08;;;;;;;0.00;0.00;;;;;;;12.15;67.82;100108.81;5013775;28;20033;-74
2023/06/09 02:42:34;;;;;;;0.00;0.00;;;;;;;12.15;67.46;100108.00;5006134;28;20037;-74
2023/06/09 02:45:00;;;;;;;0.00;0.00;;;;;;;12.13;67.71;100104.72;5015722;28;20033;-75
2023/06/09 02:47:26;;;;;;;0.00;0.00;;;;;;;12.26;67.62;100108.75;5004837;28;20037;-76
2023/06/09 02:49:51;;;;;;;0.00;0.00;;;;;;;12.42;67.78;100115.75;4968960;28;20114;-76
2023/06/09 02:52:17;;;;;;;0.00;0.00;;;;;;;12.48;67.31;100102.81;5005676;28;20037;-75
2023/06/09 02:54:43;;;;;;;0.00;0.00;;;;;;;12.55;67.08;100106.06;5007332;28;20030;-74
2023/06/09 02:57:09;;;;;;;0.00;0.00;;;;;;;12.61;67.15;100104.91;4981370;28;20714;-74
2023/06/09 02:59:34;;;;;;;0.00;0.00;;;;;;;12.63;67.59;100102.72;4968501;28;20045;-74
2023/06/09 03:02:00;;;;;;;0.00;0.00;;;;;;;12.67;67.69;100103.75;5011141;28;20050;-73
2023/06/09 03:04:25;;;;;;;0.00;0.00;;;;;;;12.62;67.13;100109.28;5015639;28;20042;-73
2023/06/09 03:06:53;;;;;;;0.00;0.00;;;;;;;12.58;67.61;100094.50;4980617;28;21477;-73
2023/06/09 03:09:19;;;;;;;0.00;0.00;;;;;;;12.67;67.79;100103.75;4986362;28;20018;-73
2023/06/09 03:11:45;;;;;;;0.00;0.00;;;;;;;12.74;68.18;100104.22;5000546;28;20080;-73
2023/06/09 03:14:11;;;;;;;0.00;0.00;;;;;;;12.85;68.12;100104.13;4996329;28;20468;-74
2023/06/09 03:16:36;;;;;;;0.00;0.00;;;;;;;12.94;68.09;100102.44;4986752;28;20033;-74
2023/06/09 03:19:02;;;;;;;0.00;0.00;;;;;;;12.94;68.01;100099.69;4998914;28;20043;-74
2023/06/09 03:21:28;;;;;;;0.00;0.00;;;;;;;12.92;68.35;100094.47;4975112;28;20374;-74
2023/06/09 03:23:54;;;;;;;0.00;0.00;;;;;;;12.90;67.85;100101.34;4999115;28;20045;-73
2023/06/09 03:26:19;;;;;;;0.00;0.00;;;;;;;12.81;67.97;100097.63;5019022;28;20033;-74
2023/06/09 03:28:45;;;;;;;0.00;0.00;;;;;;;12.77;67.76;100093.81;5003901;28;20032;-74
2023/06/09 03:31:13;;;;;;;0.00;0.00;;;;;;;12.70;67.95;100097.72;4997211;28;20038;-75
2023/06/09 03:33:39;;;;;;;0.00;0.00;;;;;;;12.60;68.33;100094.22;4997816;28;20044;-75
2023/06/09 03:36:04;;;;;;;0.00;0.00;;;;;;;12.54;69.29;100079.72;5002039;28;20448;-74
2023/06/09 03:38:30;;;;;;;0.00;0.00;;;;;;;12.56;69.50;100091.25;4998813;28;20034;-74
2023/06/09 03:40:55;;;;;;;0.00;0.00;;;;;;;12.53;69.39;100092.63;5002469;28;20049;-75
2023/06/09 03:43:20;;;;;;;0.00;0.00;;;;;;;12.46;69.55;100088.59;4999496;28;20037;-75
2023/06/09 03:45:48;;;;;;;0.00;0.00;;;;;;;12.42;69.43;100087.53;5000131;28;20025;-74
2023/06/09 03:48:14;;;;;;;0.00;0.00;;;;;;;12.42;69.57;100101.25;4997787;28;20084;-75
2023/06/09 03:50:40;;;;;;;0.00;0.00;;;;;;;12.38;69.86;100095.50;4982624;28;20030;-74
2023/06/09 03:53:06;;;;;;;0.00;0.00;;;;;;;12.36;69.68;100101.25;4985664;28;20449;-74
2023/06/09 03:55:31;;;;;;;0.00;0.00;;;;;;;12.34;70.07;100091.72;4994300;28;20085;-74
2023/06/09 03:57:56;;;;;;;0.00;0.00;;;;;;;12.30;70.25;100091.44;4998843;28;20391;-74
2023/06/09 04:00:23;;;;;;;0.00;0.00;;;;;;;12.30;70.10;100090.63;5013475;28;20034;-74
2023/06/09 04:02:48;;;;;;;0.00;0.00;;;;;;;12.26;70.54;100087.63;5006199;28;20053;-74
2023/06/09 04:05:14;;;;;;;0.00;0.00;;;;;;;12.27;70.55;100089.28;4967845;28;20044;-75
2023/06/09 04:07:40;;;;;;;0.00;0.00;;;;;;;12.32;70.90;100097.44;4983522;28;20030;-75
2023/06/09 04:10:07;;;;;;;0.00;0.00;;;;;;;12.29;70.96;100076.09;4982268;28;20088;-75
2023/06/09 04:12:32;;;;;;;0.00;0.00;;;;;;;12.32;70.94;100085.69;4999001;28;20104;-75
2023/06/09 04:14:59;;;;;;;0.00;0.00;;;;;;;12.26;71.34;100093.13;4969974;28;20468;-75
2023/06/09 04:17:24;;;;;;;0.00;0.00;;;;;;;12.22;71.57;100086.56;4969145;28;20043;-75
2023/06/09 04:19:51;;;;;;;0.00;0.00;;;;;;;12.28;71.59;100095.56;4999829;28;20053;-75
2023/06/09 04:22:17;;;;;;;0.00;0.00;;;;;;;12.22;71.29;100086.56;4988952;28;20061;-75
2023/06/09 04:24:43;;;;;;;0.00;0.00;;;;;;;12.25;71.36;100086.00;5006989;28;20045;-74
2023/06/09 04:27:08;;;;;;;0.00;0.00;;;;;;;12.28;71.86;100090.94;4966827;28;20424;-75
2023/06/09 04:29:34;;;;;;;0.00;0.00;;;;;;;12.31;71.26;100095.00;4989979;28;20026;-73
2023/06/09 04:32:00;;;;;;;0.00;0.00;;;;;;;12.33;71.30;100098.28;5006501;28;20040;-75
2023/06/09 04:34:27;;;;;;;0.00;0.00;;;;;;;12.39;71.31;100095.19;4998638;28;20058;-74
2023/06/09 04:36:53;;;;;;;0.00;0.00;;;;;;;12.44;71.86;100094.38;5006847;28;20049;-76
2023/06/09 04:39:19;;;;;;;0.00;0.00;;;;;;;12.61;71.41;100110.41;5009785;28;20058;-76
2023/06/09 04:41:47;;;;;;;0.00;0.00;;;;;;;12.73;71.07;100113.59;5008357;28;20026;-77
2023/06/09 04:44:13;;;;;;;0.00;0.00;;;;;;;12.92;70.88;100115.59;4990004;28;20053;-76
2023/06/09 04:46:41;;;;;;;0.00;0.00;;;;;;;13.01;70.17;100108.38;4986639;28;20469;-76
2023/06/09 04:49:10;;;;;;;0.00;0.00;;;;;;;13.16;69.79;100109.34;5007675;28;20042;-75
2023/06/09 04:51:46;;;;;;;0.00;0.00;;;;;;;13.34;69.71;100118.75;5001441;28;20765;-75
2023/06/09 04:54:16;;;;;;;0.00;0.00;;;;;;;13.33;69.42;100109.69;5011574;28;20029;-77
2023/06/09 04:56:43;;;;;;;0.00;0.00;;;;;;;13.42;69.03;100124.44;4987606;28;20492;-74
2023/06/09 04:59:11;;;;;;;0.00;0.00;;;;;;;13.47;69.47;100125.50;5009423;28;20038;-75
2023/06/09 05:01:37;;;;;;;0.00;0.00;;;;;;;13.47;69.70;100117.25;4979354;28;20063;-73
2023/06/09 05:04:08;;;;;;;0.00;0.00;;;;;;;13.56;69.41;100118.25;5004452;28;20767;-75
2023/06/09 05:06:36;;;;;;;0.00;0.00;;;;;;;13.70;69.07;100113.66;5001209;28;20040;-74
2023/06/09 05:09:02;;;;;;;0.00;0.00;;;;;;;13.72;68.92;100103.19;5005658;28;20022;-75
2023/06/09 05:11:27;;;;;;;0.00;0.00;;;;;;;13.94;68.28;100113.63;5003886;28;20037;-75
2023/06/09 05:13:53;;;;;;;0.00;0.00;;;;;;;14.07;68.39;100116.75;5003525;28;20104;-74
2023/06/09 05:16:21;;;;;;;0.00;0.00;;;;;;;14.21;67.95;100122.34;5017057;28;20030;-76
2023/06/09 05:18:47;;;;;;;0.00;0.00;;;;;;;14.27;67.71;100123.88;5013988;28;20030;-78
2023/06/09 05:21:12;;;;;;;0.00;0.00;;;;;;;14.23;67.72;100109.09;5002743;28;20103;-74
2023/06/09 05:23:37;;;;;;;0.00;0.00;;;;;;;14.25;67.46;100115.94;4993289;28;20027;-76
2023/06/09 05:26:03;;;;;;;0.00;0.00;;;;;;;14.20;67.66;100095.94;5017113;28;20029;-76
2023/06/09 05:28:28;;;;;;;0.00;0.00;;;;;;;14.30;68.23;100113.09;4990715;28;20033;-77
2023/06/09 05:31:12;;;;;;;0.00;0.00;;;;;;;14.38;67.68;100111.59;5009741;28;20091;-76
2023/06/09 05:34:12;;;;;;;0.00;0.00;;;;;;;14.48;67.35;100094.13;5007334;28;20037;-75
2023/06/09 05:36:37;;;;;;;0.00;0.00;;;;;;;14.62;66.79;100083.19;5001585;28;20029;-77
2023/06/09 05:39:03;;;;;;;0.00;0.00;;;;;;;14.87;66.65;100108.66;4992330;28;20034;-76
2023/06/09 05:41:48;;;;;;;;;;;;;;;;;;;;;
2023/06/09 05:44:29;;;;;;;;;;;;;;;;;;;;;
2023/06/09 05:47:33;;;;;;;0.00;0.00;;;;;;;15.24;65.54;100110.41;5008238;28;20476;-76
2023/06/09 05:53:00;;;;;;;0.00;0.00;;;;;;;15.36;64.66;100096.13;5001955;28;20049;-75
2023/06/09 05:55:45;;;;;;;;;;;;;;;;;;;;;
2023/06/09 05:58:32;;;;;;;;;;;;;;;;;;;;;
2023/06/09 06:02:00;;;;;;;;;;;;;;;;;;;;;
2023/06/09 06:04:28;;;;;;;0.00;0.00;;;;;;;15.99;63.38;100121.31;5008227;28;20662;-77
2023/06/09 06:06:53;;;;;;;0.00;0.00;;;;;;;16.06;62.77;100110.66;4992908;28;20056;-79
2023/06/09 06:09:19;;;;;;;0.00;0.00;;;;;;;15.93;62.92;100092.22;4983985;28;20409;-77
2023/06/09 06:11:45;;;;;;;0.00;0.00;;;;;;;16.06;63.02;100113.44;4986620;28;20025;-77
2023/06/09 06:14:10;;;;;;;0.00;0.00;;;;;;;16.06;63.00;100107.91;5017599;28;20463;-77
2023/06/09 06:16:36;;;;;;;0.00;0.00;;;;;;;16.07;63.05;100109.56;4993262;28;20034;-78
2023/06/09 06:19:05;;;;;;;0.00;0.00;;;;;;;16.05;63.28;100112.63;4976263;28;20085;-76
2023/06/09 06:21:30;;;;;;;0.00;0.00;;;;;;;15.93;62.86;100089.47;5001809;28;20423;-78
2023/06/09 06:23:56;;;;;;;0.00;0.00;;;;;;;15.99;62.89;100118.53;5001982;28;20111;-78
2023/06/09 06:26:22;;;;;;;0.00;0.00;;;;;;;15.83;63.33;100113.38;5005857;28;20026;-76
2023/06/09 06:28:48;;;;;;;0.00;0.00;;;;;;;15.69;63.89;100107.84;4986782;28;20021;-77
2023/06/09 06:31:16;;;;;;;0.00;0.00;;;;;;;15.57;63.82;100112.28;5013261;28;20037;-77
2023/06/09 06:33:43;;;;;;;0.00;0.00;;;;;;;15.50;64.39;100113.47;5011334;28;20502;-76
2023/06/09 06:36:08;;;;;;;0.00;0.00;;;;;;;15.50;64.43;100113.47;5004347;28;20095;-78
2023/06/09 06:38:34;;;;;;;0.00;0.00;;;;;;;15.54;64.53;100119.22;5007334;28;20468;-77
2023/06/09 06:40:59;;;;;;;0.00;0.00;;;;;;;15.59;64.38;100116.34;4998691;28;20401;-77
2023/06/09 06:43:25;;;;;;;0.00;0.00;;;;;;;15.61;63.96;100102.25;5003718;28;20456;-76
2023/06/09 06:45:50;;;;;;;0.00;0.00;;;;;;;15.87;63.78;100122.69;4985969;28;20507;-76
2023/06/09 06:48:16;;;;;;;0.00;0.00;;;;;;;16.07;63.20;100100.47;5015876;28;20125;-78
2023/06/09 06:50:41;;;;;;;0.00;0.00;;;;;;;16.34;62.52;100096.78;5003081;28;20018;-77
2023/06/09 06:53:08;;;;;;;0.00;0.00;;;;;;;16.71;61.71;100111.34;4993089;28;20546;-77
2023/06/09 06:55:35;;;;;;;0.00;0.00;;;;;;;16.93;61.27;100103.06;4971553;28;20026;-75
2023/06/09 06:58:03;;;;;;;0.00;0.00;;;;;;;17.34;60.20;100111.38;4983910;28;20125;-76
2023/06/09 07:00:29;;;;;;;0.00;0.00;;;;;;;17.56;59.20;100113.25;5005293;28;20025;-77
2023/06/09 07:02:55;;;;;;;0.00;0.00;;;;;;;17.87;58.73;100113.16;5004232;28;20103;-77
2023/06/09 07:05:21;;;;;;;0.00;0.00;;;;;;;18.15;57.22;100112.91;4997482;28;20026;-77
2023/06/09 07:07:54;;;;;;;0.00;0.00;;;;;;;18.46;56.62;100103.59;4992969;28;20480;-77
2023/06/09 07:10:20;;;;;;;0.00;0.00;;;;;;;18.89;56.38;100127.66;4983587;28;20045;-80
2023/06/09 07:12:45;;;;;;;0.00;0.00;;;;;;;19.23;54.92;100094.63;4998696;28;20506;-78
2023/06/09 07:15:11;;;;;;;0.00;0.00;;;;;;;19.61;53.76;100102.09;5001060;28;20038;-77
2023/06/09 07:17:36;;;;;;;0.00;0.00;;;;;;;19.96;52.78;100105.53;4971159;28;20053;-77
2023/06/09 07:20:02;;;;;;;0.00;0.00;;;;;;;20.19;51.77;100099.63;5011996;28;20143;-76
2023/06/09 07:22:28;;;;;;;0.00;0.00;;;;;;;20.39;50.82;100098.81;4986725;28;20034;-78
2023/06/09 07:25:07;;;;;;;0.00;0.00;;;;;;;20.58;50.33;100098.28;4983117;28;20036;-77
2023/06/09 07:27:32;;;;;;;0.00;0.00;;;;;;;20.78;49.72;100095.03;4994507;28;20053;-77
2023/06/09 07:29:57;;;;;;;0.00;0.00;;;;;;;20.87;49.14;100093.00;4966173;28;20018;-77
2023/06/09 07:32:49;;;;;;;;;;;;;;;;;;;;;
2023/06/09 07:35:22;;;;;;;0.00;0.00;;;;;;;21.13;48.80;100094.63;5004030;28;20041;-76
2023/06/09 07:40:34;;;;;;;0.00;0.00;;;;;;;21.39;47.61;100097.91;4989756;28;20049;-77
2023/06/09 07:43:07;;;;;;;0.00;0.00;;;;;;;21.21;47.98;100085.38;4994257;28;20058;-77
2023/06/09 07:45:35;;;;;;;0.00;0.00;;;;;;;21.36;47.81;100108.91;4965471;28;20038;-76
2023/06/09 07:48:01;;;;;;;0.00;0.00;;;;;;;21.37;47.75;100094.66;4975759;28;20472;-77
2023/06/09 07:50:45;;;;;;;0.00;0.00;;;;;;;21.74;47.62;100091.91;4985985;28;20027;-78
2023/06/09 07:53:10;;;;;;;0.00;0.00;;;;;;;21.94;46.97;100111.56;4986167;28;20026;-78
2023/06/09 07:55:36;;;;;;;0.00;0.00;;;;;;;22.10;46.25;100104.09;4998430;28;20056;-77
2023/06/09 07:58:01;;;;;;;0.00;0.00;;;;;;;22.18;46.20;100116.28;4980805;28;20499;-75
2023/06/09 08:00:27;;;;;;;0.00;0.00;;;;;;;22.12;46.32;100121.28;5010069;28;20816;-76
2023/06/09 08:03:07;;;;;;;0.00;0.00;;;;;;;21.97;46.36;100099.72;4986514;28;20061;-78
2023/06/09 08:05:32;;;;;;;0.00;0.00;;;;;;;21.95;46.28;100116.00;5007793;28;22370;-76
2023/06/09 08:08:00;;;;;;;0.00;0.00;;;;;;;21.72;46.47;100105.34;5003761;28;20023;-77
2023/06/09 08:10:26;;;;;;;0.00;0.00;;;;;;;21.70;47.02;100115.19;4993862;28;20037;-77
2023/06/09 08:12:51;;;;;;;0.00;0.00;;;;;;;21.76;46.46;100106.25;4995749;28;20384;-77
2023/06/09 08:15:17;;;;;;;0.00;0.00;;;;;;;21.92;46.01;100113.91;4987610;28;20046;-77
2023/06/09 08:17:42;;;;;;;0.00;0.00;;;;;;;22.04;46.45;100122.22;5009364;28;20102;-76
2023/06/09 08:20:08;;;;;;;0.00;0.00;;;;;;;22.20;45.77;100124.28;5010567;28;20460;-77
2023/06/09 08:22:34;;;;;;;0.00;0.00;;;;;;;22.10;45.75;100115.25;4981657;28;20361;-78
2023/06/09 08:25:05;;;;;;;0.00;0.00;;;;;;;22.23;45.64;100123.59;5011780;28;20030;-76
2023/06/09 08:27:32;;;;;;;0.00;0.00;;;;;;;22.26;45.97;100118.09;5006736;28;20038;-78
2023/06/09 08:29:59;;;;;;;0.00;0.00;;;;;;;22.25;45.73;100110.09;4968334;28;20018;-73
2023/06/09 08:32:25;;;;;;;0.00;0.00;;;;;;;22.20;45.30;100113.94;5004645;28;20037;-73
2023/06/09 08:34:51;;;;;;;0.00;0.00;;;;;;;22.09;46.05;100110.88;5004716;28;20387;-74
2023/06/09 08:37:16;;;;;;;0.00;0.00;;;;;;;22.10;46.16;100123.59;4990080;28;20113;-74
2023/06/09 08:39:42;;;;;;;0.00;0.00;;;;;;;22.04;46.25;100116.66;5009959;28;20472;-74
2023/06/09 08:42:22;;;;;;;0.00;0.00;;;;;;;22.06;46.49;100105.97;4992778;28;20038;-75
2023/06/09 08:44:55;;;;;;;0.00;0.00;;;;;;;22.31;46.49;100119.81;4992971;28;20113;-75
2023/06/09 08:47:23;;;;;;;0.00;0.00;;;;;;;22.47;46.08;100112.38;5012714;28;20121;-75
2023/06/09 08:49:51;;;;;;;0.00;0.00;;;;;;;22.53;45.59;100109.34;4992271;28;21383;-74
2023/06/09 08:52:17;;;;;;;0.00;0.00;;;;;;;22.60;45.89;100095.59;4996479;28;20041;-75
2023/06/09 08:54:45;;;;;;;0.00;0.00;;;;;;;22.58;45.46;100103.53;4991453;28;20538;-75
2023/06/09 08:57:11;;;;;;;0.00;0.00;;;;;;;22.67;45.25;100101.38;4995749;28;20026;-73
2023/06/09 08:59:37;;;;;;;0.00;0.00;;;;;;;22.71;45.65;100102.28;5009677;28;20033;-74
2023/06/09 09:02:02;;;;;;;0.00;0.00;;;;;;;22.52;45.47;100096.59;5004819;28;20057;-74
2023/06/09 09:04:28;;;;;;;0.00;0.00;;;;;;;22.56;45.84;100092.72;4996579;28;20125;-74
2023/06/09 09:06:55;;;;;;;0.00;0.00;;;;;;;22.59;45.50;100093.97;5004629;28;21195;-73
2023/06/09 09:09:20;;;;;;;0.00;0.00;;;;;;;22.57;45.21;100093.53;4994495;28;20156;-73
2023/06/09 09:11:49;;;;;;;0.00;0.00;;;;;;;22.59;45.21;100088.41;4972303;28;20572;-74
2023/06/09 09:14:15;;;;;;;0.00;0.00;;;;;;;22.58;45.21;100078.44;4996829;28;20476;-74
2023/06/09 09:16:40;;;;;;;0.00;0.00;;;;;;;22.63;45.69;100086.53;4997401;28;20025;-74
2023/06/09 09:19:06;;;;;;;0.00;0.00;;;;;;;22.63;45.62;100072.59;4989707;28;20019;-74
2023/06/09 09:21:37;;;;;;;0.00;0.00;;;;;;;22.82;45.35;100083.88;5007623;28;20380;-73
2023/06/09 09:24:06;;;;;;;0.00;0.00;;;;;;;22.84;45.71;100070.38;4991257;28;20030;-73
2023/06/09 09:26:32;;;;;;;0.00;0.00;;;;;;;22.90;45.40;100067.34;4995902;28;20034;-74
2023/06/09 09:29:07;;;;;;;0.00;0.00;;;;;;;22.91;45.59;100075.34;4993300;28;20025;-73
2023/06/09 09:31:35;;;;;;;0.00;0.00;;;;;;;22.90;45.08;100079.31;4991633;28;20512;-73
2023/06/09 09:34:01;;;;;;;0.00;0.00;;;;;;;22.81;45.17;100054.38;4990026;28;20021;-73
2023/06/09 09:36:26;;;;;;;0.00;0.00;;;;;;;22.96;45.63;100071.50;5001262;28;20053;-74
2023/06/09 09:38:55;;;;;;;0.00;0.00;;;;;;;23.06;44.59;100059.78;4993057;28;20531;-73
2023/06/09 09:41:20;;;;;;;0.00;0.00;;;;;;;23.08;45.28;100068.59;5011562;28;20150;-73
2023/06/09 09:43:46;;;;;;;0.00;0.00;;;;;;;23.10;45.06;100077.47;4993383;28;20030;-74
2023/06/09 09:46:12;;;;;;;0.00;0.00;;;;;;;23.35;44.73;100074.50;5006666;28;20043;-73
2023/06/09 09:48:38;;;;;;;0.00;0.00;;;;;;;23.44;44.66;100058.34;5001304;28;20117;-74
2023/06/09 09:51:05;;;;;;;0.00;0.00;;;;;;;23.55;45.19;100069.75;5000943;28;20176;-72
2023/06/09 09:53:31;;;;;;;0.00;0.00;;;;;;;23.64;44.64;100058.41;5001336;28;20083;-74
2023/06/09 09:56:00;;;;;;;0.00;0.00;;;;;;;23.72;44.33;100062.97;5004889;28;20391;-73
2023/06/09 09:58:35;;;;;;;0.00;0.00;;;;;;;23.81;44.77;100041.25;4990145;28;20105;-74
2023/06/09 10:01:06;;;;;;;0.00;0.00;;;;;;;24.06;44.59;100046.59;4996433;28;20058;-74
2023/06/09 10:03:37;;;;;;;0.00;0.00;;;;;;;24.35;43.57;100041.59;4984365;28;20105;-73
2023/06/09 10:06:03;;;;;;;0.00;0.00;;;;;;;25.07;42.66;100040.94;4999143;28;20034;-73
2023/06/09 10:08:31;;;;;;;0.00;0.00;;;;;;;26.15;40.77;100030.50;4984718;28;20129;-74
2023/06/09 10:10:59;;;;;;;0.00;0.00;;;;;;;27.08;39.26;100043.91;4994930;28;20057;-75
2023/06/09 10:13:26;;;;;;;0.00;0.00;;;;;;;26.81;38.98;100041.25;4994423;28;20023;-75
2023/06/09 10:15:53;;;;;;;0.00;0.00;;;;;;;27.67;38.25;100044.75;5005477;28;20496;-74
2023/06/09 10:18:20;;;;;;;0.00;0.00;;;;;;;28.49;36.60;100035.06;4995011;28;20030;-74
2023/06/09 10:20:48;;;;;;;0.00;0.00;;;;;;;29.20;35.67;100046.81;4968419;28;20031;-76
2023/06/09 10:23:14;;;;;;;0.00;0.00;;;;;;;30.18;34.60;100039.78;5018906;28;20036;-75
2023/06/09 10:25:41;;;;;;;0.00;0.00;;;;;;;31.54;32.92;100042.06;5009487;28;20513;-75
2023/06/09 10:28:07;;;;;;;0.00;0.00;;;;;;;32.72;31.00;100048.31;5003277;28;20508;-74
2023/06/09 10:30:33;;;;;;;0.00;0.00;;;;;;;33.52;29.83;100037.28;4984451;28;20029;-75
2023/06/09 10:33:08;;;;;;;0.00;0.00;;;;;;;33.93;29.12;100038.91;4986113;28;20098;-75
2023/06/09 10:35:36;;;;;;;0.00;0.00;;;;;;;34.71;27.90;100028.31;4989239;28;20034;-74
2023/06/09 10:38:22;;;;;;;0.00;0.00;;;;;;;35.18;26.75;100039.38;4999936;28;20066;-74
2023/06/09 10:40:53;;;;;;;0.00;0.00;;;;;;;36.08;26.56;100036.13;4974401;28;20046;-73
2023/06/09 10:43:24;;;;;;;0.00;0.00;;;;;;;37.17;25.30;100034.34;5009884;28;20484;-73
2023/06/09 10:45:55;;;;;;;0.00;0.00;;;;;;;37.55;24.46;100039.16;5004526;28;20033;-73
2023/06/09 10:48:40;;;;;;;0.00;0.00;;;;;;;38.48;23.56;100031.22;4971823;28;20842;-74
2023/06/09 10:51:27;;;;;;;0.00;0.00;;;;;;;38.91;22.70;100026.63;4991017;28;20030;-73
2023/06/09 10:54:25;;;;;;;0.00;0.00;;;;;;;38.35;22.42;100017.84;4993582;28;20026;-71
2023/06/09 10:57:03;;;;;;;0.00;0.00;;;;;;;38.73;22.68;100019.59;4977634;28;21032;-74
2023/06/09 10:59:30;;;;;;;0.00;0.00;;;;;;;39.08;22.55;100022.22;4995882;28;20445;-75
2023/06/09 11:02:05;;;;;;;0.00;0.00;;;;;;;40.11;21.96;100029.53;4990099;28;20049;-71
2023/06/09 11:04:45;;;;;;;0.00;0.00;;;;;;;40.90;20.89;100021.31;5009009;28;20029;-72
2023/06/09 11:07:16;;;;;;;0.00;0.00;;;;;;;41.42;20.44;100027.66;4990376;28;20084;-72
2023/06/09 11:09:48;;;;;;;0.00;0.00;;;;;;;40.23;20.86;100021.25;4994402;28;20030;-73
2023/06/09 11:12:25;;;;;;;0.00;0.00;;;;;;;36.89;23.52;100019.00;5012319;28;20025;-74
2023/06/09 11:14:58;;;;;;;0.00;0.00;;;;;;;34.64;26.57;100012.28;5019314;28;20461;-72
2023/06/09 11:17:30;;;;;;;0.00;0.00;;;;;;;33.86;28.00;100005.06;5006659;28;20148;-71
2023/06/09 11:20:08;;;;;;;0.00;0.00;;;;;;;34.07;28.12;100003.78;5020113;28;20026;-75
2023/06/09 11:22:49;;;;;;;0.00;0.00;;;;;;;34.63;27.33;99995.69;5004251;28;20056;-73
2023/06/09 11:25:15;;;;;;;0.00;0.00;;;;;;;35.72;25.96;100003.00;5015387;28;20496;-74
2023/06/09 11:27:41;;;;;;;0.00;0.00;;;;;;;36.74;24.76;100002.38;5005737;28;20124;-73
2023/06/09 11:30:07;;;;;;;0.00;0.00;;;;;;;38.12;22.92;99993.44;4988524;28;20582;-73
2023/06/09 11:32:52;;;;;;;0.00;0.00;;;;;;;39.10;21.68;100007.44;4997220;28;20034;-74
2023/06/09 11:35:30;;;;;;;0.00;0.00;;;;;;;39.95;20.88;100004.13;5002903;28;20030;-75
2023/06/09 11:38:03;;;;;;;0.00;0.00;;;;;;;40.99;20.17;99989.69;4995156;28;20460;-72
2023/06/09 11:40:31;;;;;;;0.00;0.00;;;;;;;41.89;19.38;99996.47;4999132;28;20481;-74
2023/06/09 11:42:58;;;;;;;0.00;0.00;;;;;;;42.52;18.83;99990.44;4994952;28;20109;-73
2023/06/09 11:45:30;;;;;;;0.00;0.00;;;;;;;43.07;17.39;99982.38;5002082;28;20050;-75
2023/06/09 11:47:59;;;;;;;0.00;0.00;;;;;;;42.85;17.68;99977.88;4993762;28;20043;-74